sensor_id;sensor_type;location;lat;lon;timestamp;P1;durP1;ratioP1;P2;durP2;ratioP2
16928;SDS011;8581;47.334;11.190;2023-06-04T00:00:55;4.30;;;3.53;;
16928;SDS011;8581;47.334;11.190;2023-06-04T00:03:26;3.60;;;3.30;;
16928;SDS011;8581;47.334;11.190;2023-06-04T00:05:58;5.23;;;3.07;;
16928;SDS011;8581;47.334;11.190;2023-06-04T00:08:30;3.10;;;2.90;;
16928;SDS011;8581;47.334;11.190;2023-06-04T00:11:01;3.40;;;3.10;;
16928;SDS011;8581;47.334;11.190;2023-06-04T00:13:33;3.30;;;2.90;;
16928;SDS011;8581;47.334;11.190;2023-06-04T00:16:04;3.90;;;3.17;;
16928;SDS011;8581;47.334;11.190;2023-06-04T00:18:36;3.23;;;3.03;;
16928;SDS011;8581;47.334;11.190;2023-06-04T00:21:08;3.27;;;3.07;;
16928;SDS011;8581;47.334;11.190;2023-06-04T00:23:39;3.53;;;3.23;;
16928;SDS011;8581;47.334;11.190;2023-06-04T00:26:11;4.23;;;3.83;;
16928;SDS011;8581;47.334;11.190;2023-06-04T00:28:42;3.77;;;3.47;;
16928;SDS011;8581;47.334;11.190;2023-06-04T00:31:14;3.50;;;3.20;;
16928;SDS011;8581;47.334;11.190;2023-06-04T00:33:46;3.73;;;3.40;;
16928;SDS011;8581;47.334;11.190;2023-06-04T00:36:17;3.93;;;3.60;;
16928;SDS011;8581;47.334;11.190;2023-06-04T00:38:49;3.83;;;3.53;;
16928;SDS011;8581;47.334;11.190;2023-06-04T00:41:20;3.50;;;3.20;;
16928;SDS011;8581;47.334;11.190;2023-06-04T00:43:52;3.87;;;3.57;;
16928;SDS011;8581;47.334;11.190;2023-06-04T00:46:26;3.80;;;3.40;;
16928;SDS011;8581;47.334;11.190;2023-06-04T00:48:58;4.17;;;3.77;;
16928;SDS011;8581;47.334;11.190;2023-06-04T00:51:30;4.20;;;3.80;;
16928;SDS011;8581;47.334;11.190;2023-06-04T00:54:02;4.33;;;3.93;;
16928;SDS011;8581;47.334;11.190;2023-06-04T00:56:33;4.40;;;4.10;;
16928;SDS011;8581;47.334;11.190;2023-06-04T00:59:05;6.60;;;3.80;;
16928;SDS011;8581;47.334;11.190;2023-06-04T01:01:43;4.27;;;3.97;;
16928;SDS011;8581;47.334;11.190;2023-06-04T01:04:32;5.30;;;4.27;;
16928;SDS011;8581;47.334;11.190;2023-06-04T01:07:03;4.40;;;4.10;;
16928;SDS011;8581;47.334;11.190;2023-06-04T01:09:35;4.87;;;4.47;;
16928;SDS011;8581;47.334;11.190;2023-06-04T01:12:06;4.33;;;3.93;;
16928;SDS011;8581;47.334;11.190;2023-06-04T01:14:39;4.57;;;4.17;;
16928;SDS011;8581;47.334;11.190;2023-06-04T01:17:15;4.77;;;4.37;;
16928;SDS011;8581;47.334;11.190;2023-06-04T01:22:43;4.83;;;4.33;;
16928;SDS011;8581;47.334;11.190;2023-06-04T01:25:21;4.90;;;4.40;;
16928;SDS011;8581;47.334;11.190;2023-06-04T01:27:54;4.73;;;4.30;;
16928;SDS011;8581;47.334;11.190;2023-06-04T01:30:25;4.90;;;4.50;;
16928;SDS011;8581;47.334;11.190;2023-06-04T01:32:56;4.67;;;4.27;;
16928;SDS011;8581;47.334;11.190;2023-06-04T01:35:28;4.43;;;4.03;;
16928;SDS011;8581;47.334;11.190;2023-06-04T01:37:59;5.30;;;4.50;;
16928;SDS011;8581;47.334;11.190;2023-06-04T01:40:31;4.60;;;4.30;;
16928;SDS011;8581;47.334;11.190;2023-06-04T01:43:03;4.50;;;4.10;;
16928;SDS011;8581;47.334;11.190;2023-06-04T01:45:34;4.20;;;3.90;;
16928;SDS011;8581;47.334;11.190;2023-06-04T01:48:06;4.63;;;4.23;;
16928;SDS011;8581;47.334;11.190;2023-06-04T01:50:37;4.90;;;4.50;;
16928;SDS011;8581;47.334;11.190;2023-06-04T01:53:09;4.57;;;4.17;;
16928;SDS011;8581;47.334;11.190;2023-06-04T01:55:41;4.30;;;4.00;;
16928;SDS011;8581;47.334;11.190;2023-06-04T01:58:12;4.77;;;4.27;;
16928;SDS011;8581;47.334;11.190;2023-06-04T02:00:44;4.60;;;4.20;;
16928;SDS011;8581;47.334;11.190;2023-06-04T02:03:15;4.80;;;4.40;;
16928;SDS011;8581;47.334;11.190;2023-06-04T02:05:48;4.53;;;4.13;;
16928;SDS011;8581;47.334;11.190;2023-06-04T02:08:19;4.47;;;4.07;;
16928;SDS011;8581;47.334;11.190;2023-06-04T02:10:50;4.87;;;4.40;;
16928;SDS011;8581;47.334;11.190;2023-06-04T02:13:22;4.80;;;4.33;;
16928;SDS011;8581;47.334;11.190;2023-06-04T02:15:53;5.37;;;4.87;;
16928;SDS011;8581;47.334;11.190;2023-06-04T02:18:25;5.20;;;4.70;;
16928;SDS011;8581;47.334;11.190;2023-06-04T02:20:57;5.10;;;4.60;;
16928;SDS011;8581;47.334;11.190;2023-06-04T02:23:28;4.90;;;4.50;;
16928;SDS011;8581;47.334;11.190;2023-06-04T02:26:00;5.80;;;5.30;;
16928;SDS011;8581;47.334;11.190;2023-06-04T02:28:31;4.80;;;4.43;;
16928;SDS011;8581;47.334;11.190;2023-06-04T02:31:03;5.43;;;4.90;;
16928;SDS011;8581;47.334;11.190;2023-06-04T02:33:35;5.00;;;4.60;;
16928;SDS011;8581;47.334;11.190;2023-06-04T02:36:06;5.23;;;4.47;;
16928;SDS011;8581;47.334;11.190;2023-06-04T02:38:38;4.80;;;4.47;;
16928;SDS011;8581;47.334;11.190;2023-06-04T02:41:10;5.07;;;4.67;;
16928;SDS011;8581;47.334;11.190;2023-06-04T02:43:42;4.90;;;4.50;;
16928;SDS011;8581;47.334;11.190;2023-06-04T02:46:13;5.10;;;4.70;;
16928;SDS011;8581;47.334;11.190;2023-06-04T02:48:45;5.30;;;3.97;;
16928;SDS011;8581;47.334;11.190;2023-06-04T02:51:16;5.17;;;4.77;;
16928;SDS011;8581;47.334;11.190;2023-06-04T02:53:48;5.60;;;5.10;;
16928;SDS011;8581;47.334;11.190;2023-06-04T02:56:20;4.80;;;4.40;;
16928;SDS011;8581;47.334;11.190;2023-06-04T02:58:53;5.50;;;5.00;;
16928;SDS011;8581;47.334;11.190;2023-06-04T03:01:24;4.63;;;4.27;;
16928;SDS011;8581;47.334;11.190;2023-06-04T03:03:56;21.30;;;19.40;;
16928;SDS011;8581;47.334;11.190;2023-06-04T03:06:28;8.27;;;7.57;;
16928;SDS011;8581;47.334;11.190;2023-06-04T03:08:59;6.07;;;5.17;;
16928;SDS011;8581;47.334;11.190;2023-06-04T03:11:31;5.10;;;4.70;;
16928;SDS011;8581;47.334;11.190;2023-06-04T03:14:03;4.83;;;4.43;;
16928;SDS011;8581;47.334;11.190;2023-06-04T03:16:34;5.07;;;4.57;;
16928;SDS011;8581;47.334;11.190;2023-06-04T03:19:06;5.30;;;4.73;;
16928;SDS011;8581;47.334;11.190;2023-06-04T03:21:37;4.90;;;4.50;;
16928;SDS011;8581;47.334;11.190;2023-06-04T03:24:09;4.83;;;4.40;;
16928;SDS011;8581;47.334;11.190;2023-06-04T03:26:41;4.87;;;4.47;;
16928;SDS011;8581;47.334;11.190;2023-06-04T03:29:12;5.50;;;4.60;;
16928;SDS011;8581;47.334;11.190;2023-06-04T03:31:44;4.60;;;4.27;;
16928;SDS011;8581;47.334;11.190;2023-06-04T03:34:15;6.03;;;4.93;;
16928;SDS011;8581;47.334;11.190;2023-06-04T03:36:47;4.80;;;4.40;;
16928;SDS011;8581;47.334;11.190;2023-06-04T03:39:19;4.87;;;4.47;;
16928;SDS011;8581;47.334;11.190;2023-06-04T03:41:50;4.47;;;4.10;;
16928;SDS011;8581;47.334;11.190;2023-06-04T03:44:22;5.00;;;4.50;;
16928;SDS011;8581;47.334;11.190;2023-06-04T03:46:54;4.67;;;4.10;;
16928;SDS011;8581;47.334;11.190;2023-06-04T03:49:25;4.93;;;4.53;;
16928;SDS011;8581;47.334;11.190;2023-06-04T03:51:57;4.53;;;4.23;;
16928;SDS011;8581;47.334;11.190;2023-06-04T03:54:28;4.40;;;4.00;;
16928;SDS011;8581;47.334;11.190;2023-06-04T03:57:00;4.30;;;4.00;;
16928;SDS011;8581;47.334;11.190;2023-06-04T03:59:32;4.53;;;4.13;;
16928;SDS011;8581;47.334;11.190;2023-06-04T04:02:03;4.30;;;3.90;;
16928;SDS011;8581;47.334;11.190;2023-06-04T04:04:35;4.50;;;4.10;;
16928;SDS011;8581;47.334;11.190;2023-06-04T04:07:06;4.33;;;3.57;;
16928;SDS011;8581;47.334;11.190;2023-06-04T04:09:38;4.87;;;4.20;;
16928;SDS011;8581;47.334;11.190;2023-06-04T04:12:10;4.40;;;4.00;;
16928;SDS011;8581;47.334;11.190;2023-06-04T04:14:41;4.50;;;4.10;;
16928;SDS011;8581;47.334;11.190;2023-06-04T04:17:13;4.90;;;4.50;;
16928;SDS011;8581;47.334;11.190;2023-06-04T04:19:45;4.40;;;4.00;;
16928;SDS011;8581;47.334;11.190;2023-06-04T04:22:16;6.10;;;4.50;;
16928;SDS011;8581;47.334;11.190;2023-06-04T04:24:48;4.70;;;4.30;;
16928;SDS011;8581;47.334;11.190;2023-06-04T04:27:19;4.70;;;4.30;;
16928;SDS011;8581;47.334;11.190;2023-06-04T04:29:51;4.40;;;4.00;;
16928;SDS011;8581;47.334;11.190;2023-06-04T04:32:23;4.50;;;4.20;;
16928;SDS011;8581;47.334;11.190;2023-06-04T04:34:54;5.23;;;4.73;;
16928;SDS011;8581;47.334;11.190;2023-06-04T04:37:26;4.40;;;4.10;;
16928;SDS011;8581;47.334;11.190;2023-06-04T04:39:57;5.10;;;4.70;;
16928;SDS011;8581;47.334;11.190;2023-06-04T04:42:29;5.47;;;4.97;;
16928;SDS011;8581;47.334;11.190;2023-06-04T04:45:01;5.10;;;4.70;;
16928;SDS011;8581;47.334;11.190;2023-06-04T04:47:32;5.47;;;5.07;;
16928;SDS011;8581;47.334;11.190;2023-06-04T04:50:04;5.20;;;4.80;;
16928;SDS011;8581;47.334;11.190;2023-06-04T04:52:37;5.63;;;5.20;;
16928;SDS011;8581;47.334;11.190;2023-06-04T04:55:08;5.57;;;4.90;;
16928;SDS011;8581;47.334;11.190;2023-06-04T04:57:40;5.70;;;5.20;;
16928;SDS011;8581;47.334;11.190;2023-06-04T05:00:12;6.40;;;5.70;;
16928;SDS011;8581;47.334;11.190;2023-06-04T05:02:45;6.97;;;6.40;;
16928;SDS011;8581;47.334;11.190;2023-06-04T05:05:16;6.90;;;6.30;;
16928;SDS011;8581;47.334;11.190;2023-06-04T05:07:48;7.10;;;6.50;;
16928;SDS011;8581;47.334;11.190;2023-06-04T05:10:19;7.73;;;6.97;;
16928;SDS011;8581;47.334;11.190;2023-06-04T05:12:52;8.17;;;7.37;;
16928;SDS011;8581;47.334;11.190;2023-06-04T05:15:24;8.03;;;7.30;;
16928;SDS011;8581;47.334;11.190;2023-06-04T05:17:55;8.80;;;8.10;;
16928;SDS011;8581;47.334;11.190;2023-06-04T05:20:27;8.30;;;7.60;;
16928;SDS011;8581;47.334;11.190;2023-06-04T05:22:58;8.30;;;7.60;;
16928;SDS011;8581;47.334;11.190;2023-06-04T05:25:30;7.30;;;6.70;;
16928;SDS011;8581;47.334;11.190;2023-06-04T05:28:01;7.17;;;6.50;;
16928;SDS011;8581;47.334;11.190;2023-06-04T05:30:33;6.53;;;5.93;;
16928;SDS011;8581;47.334;11.190;2023-06-04T05:33:05;6.43;;;5.93;;
16928;SDS011;8581;47.334;11.190;2023-06-04T05:35:36;5.93;;;5.40;;
16928;SDS011;8581;47.334;11.190;2023-06-04T05:38:08;5.63;;;5.13;;
16928;SDS011;8581;47.334;11.190;2023-06-04T05:40:39;5.43;;;5.03;;
16928;SDS011;8581;47.334;11.190;2023-06-04T05:43:11;5.00;;;4.60;;
16928;SDS011;8581;47.334;11.190;2023-06-04T05:45:43;4.30;;;4.00;;
16928;SDS011;8581;47.334;11.190;2023-06-04T05:48:14;4.17;;;3.77;;
16928;SDS011;8581;47.334;11.190;2023-06-04T05:50:46;4.87;;;3.63;;
16928;SDS011;8581;47.334;11.190;2023-06-04T05:53:18;3.13;;;2.83;;
16928;SDS011;8581;47.334;11.190;2023-06-04T05:55:49;3.23;;;2.93;;
16928;SDS011;8581;47.334;11.190;2023-06-04T05:58:21;3.53;;;3.23;;
16928;SDS011;8581;47.334;11.190;2023-06-04T06:00:52;3.00;;;2.80;;
16928;SDS011;8581;47.334;11.190;2023-06-04T06:03:24;2.77;;;2.57;;
16928;SDS011;8581;47.334;11.190;2023-06-04T06:05:56;2.73;;;2.53;;
16928;SDS011;8581;47.334;11.190;2023-06-04T06:08:27;3.63;;;2.80;;
16928;SDS011;8581;47.334;11.190;2023-06-04T06:10:59;2.53;;;2.33;;
16928;SDS011;8581;47.334;11.190;2023-06-04T06:13:31;2.73;;;2.53;;
16928;SDS011;8581;47.334;11.190;2023-06-04T06:16:02;3.13;;;2.83;;
16928;SDS011;8581;47.334;11.190;2023-06-04T06:18:34;3.07;;;2.77;;
16928;SDS011;8581;47.334;11.190;2023-06-04T06:21:05;3.07;;;2.77;;
16928;SDS011;8581;47.334;11.190;2023-06-04T06:23:37;2.70;;;2.50;;
16928;SDS011;8581;47.334;11.190;2023-06-04T06:26:09;2.50;;;2.30;;
16928;SDS011;8581;47.334;11.190;2023-06-04T06:28:40;3.17;;;2.80;;
16928;SDS011;8581;47.334;11.190;2023-06-04T06:31:12;3.00;;;2.80;;
16928;SDS011;8581;47.334;11.190;2023-06-04T06:33:43;2.90;;;2.70;;
16928;SDS011;8581;47.334;11.190;2023-06-04T06:36:15;2.80;;;2.60;;
16928;SDS011;8581;47.334;11.190;2023-06-04T06:38:47;3.50;;;3.20;;
16928;SDS011;8581;47.334;11.190;2023-06-04T06:41:18;3.40;;;3.10;;
16928;SDS011;8581;47.334;11.190;2023-06-04T06:43:50;3.43;;;3.13;;
16928;SDS011;8581;47.334;11.190;2023-06-04T06:46:21;3.53;;;2.70;;
16928;SDS011;8581;47.334;11.190;2023-06-04T06:48:53;2.57;;;2.37;;
16928;SDS011;8581;47.334;11.190;2023-06-04T06:51:25;3.77;;;2.57;;
16928;SDS011;8581;47.334;11.190;2023-06-04T06:53:56;2.37;;;2.17;;
16928;SDS011;8581;47.334;11.190;2023-06-04T06:56:28;2.40;;;2.20;;
16928;SDS011;8581;47.334;11.190;2023-06-04T06:58:59;1.97;;;1.87;;
16928;SDS011;8581;47.334;11.190;2023-06-04T07:01:31;1.90;;;1.80;;
16928;SDS011;8581;47.334;11.190;2023-06-04T07:04:03;4.80;;;2.47;;
16928;SDS011;8581;47.334;11.190;2023-06-04T07:06:34;2.50;;;2.10;;
16928;SDS011;8581;47.334;11.190;2023-06-04T07:09:06;3.63;;;2.30;;
16928;SDS011;8581;47.334;11.190;2023-06-04T07:11:38;1.83;;;1.73;;
16928;SDS011;8581;47.334;11.190;2023-06-04T07:14:10;2.00;;;1.80;;
16928;SDS011;8581;47.334;11.190;2023-06-04T07:16:41;2.20;;;2.00;;
16928;SDS011;8581;47.334;11.190;2023-06-04T07:19:13;2.60;;;1.83;;
16928;SDS011;8581;47.334;11.190;2023-06-04T07:21:46;2.30;;;1.97;;
16928;SDS011;8581;47.334;11.190;2023-06-04T07:24:18;2.10;;;1.90;;
16928;SDS011;8581;47.334;11.190;2023-06-04T07:26:50;3.80;;;2.63;;
16928;SDS011;8581;47.334;11.190;2023-06-04T07:29:21;3.20;;;3.00;;
16928;SDS011;8581;47.334;11.190;2023-06-04T07:31:53;3.57;;;2.67;;
16928;SDS011;8581;47.334;11.190;2023-06-04T07:34:24;3.30;;;3.00;;
16928;SDS011;8581;47.334;11.190;2023-06-04T07:36:56;2.93;;;2.73;;
16928;SDS011;8581;47.334;11.190;2023-06-04T07:39:28;3.03;;;2.83;;
16928;SDS011;8581;47.334;11.190;2023-06-04T07:41:59;3.13;;;2.77;;
16928;SDS011;8581;47.334;11.190;2023-06-04T07:44:31;2.73;;;2.53;;
16928;SDS011;8581;47.334;11.190;2023-06-04T07:47:03;2.90;;;2.70;;
16928;SDS011;8581;47.334;11.190;2023-06-04T07:49:35;2.80;;;2.60;;
16928;SDS011;8581;47.334;11.190;2023-06-04T07:52:06;3.17;;;2.63;;
16928;SDS011;8581;47.334;11.190;2023-06-04T07:54:38;4.27;;;2.97;;
16928;SDS011;8581;47.334;11.190;2023-06-04T07:57:09;3.40;;;3.10;;
16928;SDS011;8581;47.334;11.190;2023-06-04T07:59:41;3.20;;;2.90;;
16928;SDS011;8581;47.334;11.190;2023-06-04T08:02:13;3.10;;;2.90;;
16928;SDS011;8581;47.334;11.190;2023-06-04T08:04:45;3.10;;;2.80;;
16928;SDS011;8581;47.334;11.190;2023-06-04T08:07:16;3.37;;;2.50;;
16928;SDS011;8581;47.334;11.190;2023-06-04T08:09:48;3.33;;;3.03;;
16928;SDS011;8581;47.334;11.190;2023-06-04T08:12:20;3.43;;;3.13;;
16928;SDS011;8581;47.334;11.190;2023-06-04T08:14:51;3.53;;;2.80;;
16928;SDS011;8581;47.334;11.190;2023-06-04T08:17:23;3.43;;;3.13;;
16928;SDS011;8581;47.334;11.190;2023-06-04T08:19:55;3.40;;;2.90;;
16928;SDS011;8581;47.334;11.190;2023-06-04T08:22:26;3.03;;;2.80;;
16928;SDS011;8581;47.334;11.190;2023-06-04T08:24:58;3.10;;;2.90;;
16928;SDS011;8581;47.334;11.190;2023-06-04T08:27:29;3.37;;;3.07;;
16928;SDS011;8581;47.334;11.190;2023-06-04T08:30:01;4.93;;;2.90;;
16928;SDS011;8581;47.334;11.190;2023-06-04T08:32:33;3.10;;;2.80;;
16928;SDS011;8581;47.334;11.190;2023-06-04T08:35:05;3.40;;;3.05;;
16928;SDS011;8581;47.334;11.190;2023-06-04T08:37:37;2.83;;;2.63;;
16928;SDS011;8581;47.334;11.190;2023-06-04T08:40:09;4.33;;;2.87;;
16928;SDS011;8581;47.334;11.190;2023-06-04T08:42:41;3.47;;;3.17;;
16928;SDS011;8581;47.334;11.190;2023-06-04T08:45:13;3.52;;;3.20;;
16928;SDS011;8581;47.334;11.190;2023-06-04T08:47:47;5.35;;;3.37;;
16928;SDS011;8581;47.334;11.190;2023-06-04T08:50:17;4.55;;;3.15;;
16928;SDS011;8581;47.334;11.190;2023-06-04T08:52:51;3.77;;;2.70;;
16928;SDS011;8581;47.334;11.190;2023-06-04T08:55:20;3.50;;;3.20;;
16928;SDS011;8581;47.334;11.190;2023-06-04T08:57:52;4.33;;;2.77;;
16928;SDS011;8581;47.334;11.190;2023-06-04T09:00:23;4.58;;;2.70;;
16928;SDS011;8581;47.334;11.190;2023-06-04T09:02:55;2.65;;;2.45;;
16928;SDS011;8581;47.334;11.190;2023-06-04T09:05:27;3.50;;;3.08;;
16928;SDS011;8581;47.334;11.190;2023-06-04T09:08:00;2.83;;;2.62;;
16928;SDS011;8581;47.334;11.190;2023-06-04T09:10:30;2.27;;;2.10;;
16928;SDS011;8581;47.334;11.190;2023-06-04T09:13:02;4.55;;;2.50;;
16928;SDS011;8581;47.334;11.190;2023-06-04T09:15:33;2.80;;;2.60;;
16928;SDS011;8581;47.334;11.190;2023-06-04T09:18:05;1.95;;;1.80;;
16928;SDS011;8581;47.334;11.190;2023-06-04T09:20:37;2.50;;;2.30;;
16928;SDS011;8581;47.334;11.190;2023-06-04T09:23:12;2.40;;;2.20;;
16928;SDS011;8581;47.334;11.190;2023-06-04T09:25:44;2.55;;;2.35;;
16928;SDS011;8581;47.334;11.190;2023-06-04T09:28:16;3.02;;;2.80;;
16928;SDS011;8581;47.334;11.190;2023-06-04T09:30:51;3.10;;;2.80;;
16928;SDS011;8581;47.334;11.190;2023-06-04T09:33:22;2.77;;;2.58;;
16928;SDS011;8581;47.334;11.190;2023-06-04T09:35:54;2.75;;;2.55;;
16928;SDS011;8581;47.334;11.190;2023-06-04T09:38:34;2.33;;;2.12;;
16928;SDS011;8581;47.334;11.190;2023-06-04T09:41:12;2.62;;;2.42;;
16928;SDS011;8581;47.334;11.190;2023-06-04T09:43:43;3.50;;;2.30;;
16928;SDS011;8581;47.334;11.190;2023-06-04T09:46:15;2.83;;;2.55;;
16928;SDS011;8581;47.334;11.190;2023-06-04T09:48:46;3.30;;;2.80;;
16928;SDS011;8581;47.334;11.190;2023-06-04T09:51:18;2.70;;;2.37;;
16928;SDS011;8581;47.334;11.190;2023-06-04T09:53:53;2.47;;;2.27;;
16928;SDS011;8581;47.334;11.190;2023-06-04T09:56:24;2.40;;;2.22;;
16928;SDS011;8581;47.334;11.190;2023-06-04T09:58:58;2.55;;;2.35;;
16928;SDS011;8581;47.334;11.190;2023-06-04T10:01:29;2.60;;;2.40;;
16928;SDS011;8581;47.334;11.190;2023-06-04T10:04:02;2.37;;;2.20;;
16928;SDS011;8581;47.334;11.190;2023-06-04T10:06:33;2.22;;;2.02;;
16928;SDS011;8581;47.334;11.190;2023-06-04T10:09:04;2.40;;;2.20;;
16928;SDS011;8581;47.334;11.190;2023-06-04T10:11:38;2.37;;;2.17;;
16928;SDS011;8581;47.334;11.190;2023-06-04T10:14:14;2.92;;;2.00;;
16928;SDS011;8581;47.334;11.190;2023-06-04T10:16:46;4.05;;;1.92;;
16928;SDS011;8581;47.334;11.190;2023-06-04T10:19:18;2.37;;;2.17;;
16928;SDS011;8581;47.334;11.190;2023-06-04T10:21:49;1.90;;;1.80;;
16928;SDS011;8581;47.334;11.190;2023-06-04T10:24:21;2.75;;;1.70;;
16928;SDS011;8581;47.334;11.190;2023-06-04T10:26:53;1.67;;;1.57;;
16928;SDS011;8581;47.334;11.190;2023-06-04T10:29:25;1.90;;;1.80;;
16928;SDS011;8581;47.334;11.190;2023-06-04T10:31:57;1.70;;;1.60;;
16928;SDS011;8581;47.334;11.190;2023-06-04T10:34:29;1.95;;;1.80;;
16928;SDS011;8581;47.334;11.190;2023-06-04T10:37:00;3.02;;;1.60;;
16928;SDS011;8581;47.334;11.190;2023-06-04T10:39:33;1.98;;;1.82;;
16928;SDS011;8581;47.334;11.190;2023-06-04T10:42:05;2.20;;;2.00;;
16928;SDS011;8581;47.334;11.190;2023-06-04T10:44:45;3.33;;;1.90;;
16928;SDS011;8581;47.334;11.190;2023-06-04T10:47:19;1.85;;;1.70;;
16928;SDS011;8581;47.334;11.190;2023-06-04T10:49:54;1.90;;;1.80;;
16928;SDS011;8581;47.334;11.190;2023-06-04T10:52:25;2.92;;;1.62;;
16928;SDS011;8581;47.334;11.190;2023-06-04T10:55:02;1.50;;;1.40;;
16928;SDS011;8581;47.334;11.190;2023-06-04T10:57:28;1.60;;;1.50;;
16928;SDS011;8581;47.334;11.190;2023-06-04T11:00:00;1.70;;;1.60;;
16928;SDS011;8581;47.334;11.190;2023-06-04T11:02:31;1.70;;;1.60;;
16928;SDS011;8581;47.334;11.190;2023-06-04T11:05:03;2.15;;;1.90;;
16928;SDS011;8581;47.334;11.190;2023-06-04T11:07:43;5.37;;;2.05;;
16928;SDS011;8581;47.334;11.190;2023-06-04T11:10:15;2.05;;;1.95;;
16928;SDS011;8581;47.334;11.190;2023-06-04T11:12:47;1.70;;;1.60;;
16928;SDS011;8581;47.334;11.190;2023-06-04T11:15:18;2.37;;;1.85;;
16928;SDS011;8581;47.334;11.190;2023-06-04T11:17:51;1.80;;;1.70;;
16928;SDS011;8581;47.334;11.190;2023-06-04T11:20:23;2.40;;;2.20;;
16928;SDS011;8581;47.334;11.190;2023-06-04T11:22:57;5.67;;;3.10;;
16928;SDS011;8581;47.334;11.190;2023-06-04T11:25:36;5.22;;;4.58;;
16928;SDS011;8581;47.334;11.190;2023-06-04T11:28:08;3.37;;;3.08;;
16928;SDS011;8581;47.334;11.190;2023-06-04T11:30:41;5.58;;;4.17;;
16928;SDS011;8581;47.334;11.190;2023-06-04T11:33:19;3.25;;;2.92;;
16928;SDS011;8581;47.334;11.190;2023-06-04T11:35:51;3.95;;;3.65;;
16928;SDS011;8581;47.334;11.190;2023-06-04T11:38:24;5.08;;;3.17;;
16928;SDS011;8581;47.334;11.190;2023-06-04T11:40:58;4.05;;;3.20;;
16928;SDS011;8581;47.334;11.190;2023-06-04T11:43:29;4.33;;;3.20;;
16928;SDS011;8581;47.334;11.190;2023-06-04T11:46:04;2.00;;;1.82;;
16928;SDS011;8581;47.334;11.190;2023-06-04T11:48:32;3.90;;;2.58;;
16928;SDS011;8581;47.334;11.190;2023-06-04T11:51:07;4.47;;;2.60;;
16928;SDS011;8581;47.334;11.190;2023-06-04T11:53:39;3.02;;;2.77;;
16928;SDS011;8581;47.334;11.190;2023-06-04T11:56:11;3.22;;;2.20;;
16928;SDS011;8581;47.334;11.190;2023-06-04T11:58:43;2.22;;;2.02;;
16928;SDS011;8581;47.334;11.190;2023-06-04T12:01:14;2.80;;;2.20;;
16928;SDS011;8581;47.334;11.190;2023-06-04T12:03:46;2.30;;;2.10;;
16928;SDS011;8581;47.334;11.190;2023-06-04T12:06:18;2.27;;;2.10;;
16928;SDS011;8581;47.334;11.190;2023-06-04T12:08:50;2.47;;;2.27;;
16928;SDS011;8581;47.334;11.190;2023-06-04T12:11:25;2.30;;;2.08;;
16928;SDS011;8581;47.334;11.190;2023-06-04T12:13:59;2.52;;;2.33;;
16928;SDS011;8581;47.334;11.190;2023-06-04T12:16:30;2.27;;;2.17;;
16928;SDS011;8581;47.334;11.190;2023-06-04T12:19:05;2.30;;;2.05;;
16928;SDS011;8581;47.334;11.190;2023-06-04T12:21:40;2.30;;;2.10;;
16928;SDS011;8581;47.334;11.190;2023-06-04T12:24:13;2.75;;;2.55;;
16928;SDS011;8581;47.334;11.190;2023-06-04T12:26:45;2.98;;;2.12;;
16928;SDS011;8581;47.334;11.190;2023-06-04T12:29:17;2.50;;;2.30;;
16928;SDS011;8581;47.334;11.190;2023-06-04T12:31:48;3.05;;;2.30;;
16928;SDS011;8581;47.334;11.190;2023-06-04T12:34:20;3.80;;;2.45;;
16928;SDS011;8581;47.334;11.190;2023-06-04T12:36:51;2.37;;;2.17;;
16928;SDS011;8581;47.334;11.190;2023-06-04T12:39:23;2.20;;;2.00;;
16928;SDS011;8581;47.334;11.190;2023-06-04T12:41:54;2.00;;;1.80;;
16928;SDS011;8581;47.334;11.190;2023-06-04T12:44:26;2.75;;;2.08;;
16928;SDS011;8581;47.334;11.190;2023-06-04T12:46:58;2.40;;;2.20;;
16928;SDS011;8581;47.334;11.190;2023-06-04T12:49:29;4.50;;;2.10;;
16928;SDS011;8581;47.334;11.190;2023-06-04T12:52:01;3.00;;;2.70;;
16928;SDS011;8581;47.334;11.190;2023-06-04T12:54:32;2.80;;;2.55;;
16928;SDS011;8581;47.334;11.190;2023-06-04T12:57:04;2.80;;;2.60;;
16928;SDS011;8581;47.334;11.190;2023-06-04T12:59:38;2.65;;;2.45;;
16928;SDS011;8581;47.334;11.190;2023-06-04T13:02:10;3.33;;;3.02;;
16928;SDS011;8581;47.334;11.190;2023-06-04T13:04:42;3.83;;;2.70;;
16928;SDS011;8581;47.334;11.190;2023-06-04T13:07:15;2.95;;;2.65;;
16928;SDS011;8581;47.334;11.190;2023-06-04T13:09:49;3.70;;;2.70;;
16928;SDS011;8581;47.334;11.190;2023-06-04T13:12:20;3.12;;;2.72;;
16928;SDS011;8581;47.334;11.190;2023-06-04T13:14:52;4.10;;;2.98;;
16928;SDS011;8581;47.334;11.190;2023-06-04T13:17:23;7.12;;;3.20;;
16928;SDS011;8581;47.334;11.190;2023-06-04T13:19:55;3.00;;;2.80;;
16928;SDS011;8581;47.334;11.190;2023-06-04T13:22:26;4.28;;;3.45;;
16928;SDS011;8581;47.334;11.190;2023-06-04T13:24:58;3.42;;;2.80;;
16928;SDS011;8581;47.334;11.190;2023-06-04T13:27:30;3.08;;;2.77;;
16928;SDS011;8581;47.334;11.190;2023-06-04T13:30:01;2.80;;;2.60;;
16928;SDS011;8581;47.334;11.190;2023-06-04T13:32:34;2.95;;;2.35;;
16928;SDS011;8581;47.334;11.190;2023-06-04T13:35:06;3.15;;;2.85;;
16928;SDS011;8581;47.334;11.190;2023-06-04T13:37:38;3.40;;;3.10;;
16928;SDS011;8581;47.334;11.190;2023-06-04T13:40:10;3.50;;;2.80;;
16928;SDS011;8581;47.334;11.190;2023-06-04T13:42:42;2.87;;;2.60;;
16928;SDS011;8581;47.334;11.190;2023-06-04T13:45:15;4.28;;;3.02;;
16928;SDS011;8581;47.334;11.190;2023-06-04T13:47:48;3.90;;;3.02;;
16928;SDS011;8581;47.334;11.190;2023-06-04T13:50:20;4.50;;;3.15;;
16928;SDS011;8581;47.334;11.190;2023-06-04T13:52:52;3.30;;;3.00;;
16928;SDS011;8581;47.334;11.190;2023-06-04T13:55:24;3.33;;;3.02;;
16928;SDS011;8581;47.334;11.190;2023-06-04T13:57:55;4.42;;;3.22;;
16928;SDS011;8581;47.334;11.190;2023-06-04T14:00:27;4.17;;;3.30;;
16928;SDS011;8581;47.334;11.190;2023-06-04T14:02:58;5.20;;;2.80;;
16928;SDS011;8581;47.334;11.190;2023-06-04T14:05:30;4.30;;;3.30;;
16928;SDS011;8581;47.334;11.190;2023-06-04T14:08:02;3.55;;;3.17;;
16928;SDS011;8581;47.334;11.190;2023-06-04T14:10:33;3.20;;;3.00;;
16928;SDS011;8581;47.334;11.190;2023-06-04T14:13:05;3.20;;;2.90;;
16928;SDS011;8581;47.334;11.190;2023-06-04T14:15:37;3.47;;;2.80;;
16928;SDS011;8581;47.334;11.190;2023-06-04T14:18:13;2.77;;;2.58;;
16928;SDS011;8581;47.334;11.190;2023-06-04T14:21:00;3.67;;;3.37;;
16928;SDS011;8581;47.334;11.190;2023-06-04T14:23:32;4.27;;;3.30;;
16928;SDS011;8581;47.334;11.190;2023-06-04T14:26:03;3.90;;;3.50;;
16928;SDS011;8581;47.334;11.190;2023-06-04T14:28:35;4.27;;;3.10;;
16928;SDS011;8581;47.334;11.190;2023-06-04T14:31:07;4.53;;;2.77;;
16928;SDS011;8581;47.334;11.190;2023-06-04T14:33:38;3.20;;;2.90;;
16928;SDS011;8581;47.334;11.190;2023-06-04T14:36:10;3.40;;;3.10;;
16928;SDS011;8581;47.334;11.190;2023-06-04T14:38:43;4.70;;;3.30;;
16928;SDS011;8581;47.334;11.190;2023-06-04T14:41:14;4.63;;;3.53;;
16928;SDS011;8581;47.334;11.190;2023-06-04T14:43:47;3.93;;;3.53;;
16928;SDS011;8581;47.334;11.190;2023-06-04T14:46:19;4.70;;;4.30;;
16928;SDS011;8581;47.334;11.190;2023-06-04T14:48:50;4.10;;;3.70;;
16928;SDS011;8581;47.334;11.190;2023-06-04T14:51:22;4.57;;;3.90;;
16928;SDS011;8581;47.334;11.190;2023-06-04T14:53:53;4.33;;;3.93;;
16928;SDS011;8581;47.334;11.190;2023-06-04T14:56:26;4.50;;;4.10;;
16928;SDS011;8581;47.334;11.190;2023-06-04T14:58:59;4.73;;;4.33;;
16928;SDS011;8581;47.334;11.190;2023-06-04T15:01:30;4.63;;;3.77;;
16928;SDS011;8581;47.334;11.190;2023-06-04T15:04:02;5.23;;;4.23;;
16928;SDS011;8581;47.334;11.190;2023-06-04T15:06:34;4.10;;;3.70;;
16928;SDS011;8581;47.334;11.190;2023-06-04T15:09:05;4.57;;;3.77;;
16928;SDS011;8581;47.334;11.190;2023-06-04T15:11:37;4.43;;;4.10;;
16928;SDS011;8581;47.334;11.190;2023-06-04T15:14:08;4.37;;;3.97;;
16928;SDS011;8581;47.334;11.190;2023-06-04T15:16:40;3.77;;;3.40;;
16928;SDS011;8581;47.334;11.190;2023-06-04T15:19:11;3.70;;;3.30;;